Terminal Aerodrome Forecast
Issued by NWS Twin Cities, MN

Home | Current Version | Previous Version | Graphics & Text | Print | Product List | Glossary On
Versions: 1 2 3 4 5 6 7 8 9 10 11 12 13 14 15
563
FTUS43 KMPX 032141 AAB
TAFSTC
TAF AMD
KSTC 032141Z 0322/0418 18008KT P6SM BKN020
     FM040300 15008KT 4SM -SN OVC018
     FM040430 15008KT 2SM -SN OVC008
     FM041000 16008KT P6SM VCSH OVC008=

USA.gov is the U.S. government's official web portal to all federal, state and local government web resources and services.